Ocean Beaut — WDD7485 — position and weather

sailwx.info

Track history (hours):
 
Tides and Currents Weather Stations Pressure Air Temp Water Temp Dewpoint Dewpoint Depression Visibility Wind Speed Wind Dir Waves Ship Positions

Ocean Beaut

Owner: John Moreland Fishing Inc., Astoria, OR. More information available from US FCC via Universal Licensing System.

Last reported at 2014-Oct-30 15:33 UTC. Time now 2014-Oct-30 16:03 UTC.
Position N 46°35' W 124°26'.

Length 20 m.

Type: Fishing. MMSI: 367187080.

Date/timePositionNaut miles runAvg speedWind from/ knotsBaromVisibWave heightAir tempDewpointWater temp
2014-Oct-30 15:33N 46°35' W 124°26'1 1.1
2014-Oct-30 14:32N 46°34' W 124°25'3 2.8
2014-Oct-30 13:33N 46°37' W 124°27'0 0.3
2014-Oct-30 12:33N 46°36' W 124°27'2 1.6
2014-Oct-30 11:32N 46°35' W 124°26'2 1.7
2014-Oct-30 10:33N 46°33' W 124°26'2 2.0
2014-Oct-30 09:33N 46°35' W 124°27'3 2.6
2014-Oct-30 08:33N 46°37' W 124°29'1 1.3
2014-Oct-30 07:33N 46°36' W 124°28'1 1.3
2014-Oct-30 06:33N 46°35' W 124°27'1 1.1
2014-Oct-30 05:33N 46°34' W 124°26'1 1.1
2014-Oct-30 04:33N 46°33' W 124°26'1 1.0
2014-Oct-30 03:33N 46°32' W 124°26'2 1.6
2014-Oct-30 02:15N 46°34' W 124°26'0 0.5
2014-Oct-30 01:33N 46°34' W 124°26'3 2.8
2014-Oct-30 00:33N 46°37' W 124°26'4 4.1
2014-Oct-29 23:33N 46°33' W 124°25'8 7.9
2014-Oct-29 22:33N 46°26' W 124°19'9 8.8
2014-Oct-29 21:33N 46°18' W 124°13'6 6.2
2014-Oct-29 20:33N 46°15' W 124°05'8 8.0
2014-Oct-29 19:33N 46°12' W 123°55'5 4.5
2014-Oct-29 18:33N 46°12' W 123°48'0 0.0
2014-Oct-29 17:33N 46°12' W 123°48'0 0.0
2014-Oct-29 16:30N 46°12' W 123°48'0 0.0
2014-Oct-29 15:33N 46°12' W 123°48'0 0.0
2014-Oct-29 14:33N 46°12' W 123°48'0 0.0
2014-Oct-29 13:33N 46°12' W 123°48'0 0.0
2014-Oct-29 12:33N 46°12' W 123°48'0 0.0
2014-Oct-29 11:33N 46°12' W 123°48'0 0.0
2014-Oct-29 10:33N 46°12' W 123°48'0 0.0
2014-Oct-29 09:24N 46°12' W 123°48'0 0.0
2014-Oct-29 08:33N 46°12' W 123°48'0 0.0
2014-Oct-29 07:30N 46°12' W 123°48'0 0.0
2014-Oct-29 06:33N 46°12' W 123°48'0 0.0
2014-Oct-29 05:33N 46°12' W 123°48'0 0.0
2014-Oct-29 04:33N 46°12' W 123°48'0 0.0
2014-Oct-29 03:33N 46°12' W 123°48'0 0.0
2014-Oct-29 02:33N 46°12' W 123°48'0 0.0
2014-Oct-29 01:30N 46°12' W 123°48'0 0.0
2014-Oct-29 00:30N 46°12' W 123°48'0 0.0
2014-Oct-28 23:33N 46°12' W 123°48'0 0.0
2014-Oct-28 22:33N 46°12' W 123°48'0 0.0
2014-Oct-28 21:33N 46°12' W 123°48'0 0.0
2014-Oct-28 20:33N 46°12' W 123°48'0 0.0
2014-Oct-28 19:30N 46°12' W 123°48'0 0.2
2014-Oct-28 18:33N 46°12' W 123°48'3 2.6
2014-Oct-28 17:33N 46°11' W 123°51'0 0.2
2014-Oct-28 16:33N 46°11' W 123°52'2 2.3
2014-Oct-28 15:28N 46°12' W 123°48'0 0.0
2014-Oct-28 14:28N 46°12' W 123°48'0 0.0
2014-Oct-28 13:28N 46°12' W 123°48'0 0.0
2014-Oct-28 12:31N 46°12' W 123°48'0 0.0
2014-Oct-28 11:31N 46°12' W 123°48'0 0.0
2014-Oct-28 10:31N 46°12' W 123°48'0 0.0
2014-Oct-28 09:31N 46°12' W 123°48'0 0.0
2014-Oct-28 08:31N 46°12' W 123°48'0 0.0
2014-Oct-28 07:31N 46°12' W 123°48'0 0.0
2014-Oct-28 06:31N 46°12' W 123°48'0 0.0
2014-Oct-28 05:31N 46°12' W 123°48'0 0.0
2014-Oct-28 04:31N 46°12' W 123°48'0 0.0
2014-Oct-28 03:31N 46°12' W 123°48'0 0.0
2014-Oct-28 02:31N 46°12' W 123°48'0 0.0
2014-Oct-28 01:31N 46°12' W 123°48'0 0.0
2014-Oct-28 00:31N 46°12' W 123°48'0 0.0
2014-Oct-27 23:31N 46°12' W 123°48'0 0.0
2014-Oct-27 22:31N 46°12' W 123°48'0 0.0
2014-Oct-27 21:40N 46°12' W 123°48'0 0.0
2014-Oct-27 21:31N 46°12' W 123°48'0 0.0
2014-Oct-27 20:19N 46°12' W 123°48'0 0.0
2014-Oct-27 19:28N 46°12' W 123°48'0 0.0
2014-Oct-27 18:40N 46°12' W 123°48'0 0.0
2014-Oct-27 18:31N 46°12' W 123°48'0 0.0
2014-Oct-27 17:16N 46°12' W 123°48'0 0.0
2014-Oct-27 16:31N 46°12' W 123°48'0 0.0
2014-Oct-27 15:31N 46°12' W 123°48'0 0.0
2014-Oct-27 14:28N 46°12' W 123°48'0 0.0
2014-Oct-27 13:35N 46°12' W 123°48'0 0.0
2014-Oct-27 13:31N 46°12' W 123°48'0 0.0
2014-Oct-27 13:05N 46°12' W 123°48'0 0.0
2014-Oct-27 12:31N 46°12' W 123°48'0 0.0
2014-Oct-27 11:28N 46°12' W 123°48'0 0.0
2014-Oct-27 10:31N 46°12' W 123°48'0 0.0
2014-Oct-27 09:31N 46°12' W 123°48'0 0.0
2014-Oct-27 08:31N 46°12' W 123°48'0 0.0
2014-Oct-27 07:28N 46°12' W 123°48'0 0.0
2014-Oct-27 06:59N 46°12' W 123°48'0 0.0
2014-Oct-27 06:32N 46°12' W 123°48'0 0.0
2014-Oct-27 06:29N 46°12' W 123°48'0 0.0
2014-Oct-27 06:14N 46°12' W 123°48'0 0.0
2014-Oct-27 05:32N 46°12' W 123°48'0 0.0
2014-Oct-27 04:32N 46°12' W 123°48'0 0.0
2014-Oct-27 03:32N 46°12' W 123°48'0 0.0
2014-Oct-27 02:32N 46°12' W 123°48'0 0.0
2014-Oct-27 01:53N 46°12' W 123°48'0 0.0
2014-Oct-27 01:32N 46°12' W 123°48'0 0.0
2014-Oct-27 00:32N 46°12' W 123°48'0 0.0
2014-Oct-26 23:32N 46°12' W 123°48'0 0.0
2014-Oct-26 22:38N 46°12' W 123°48'0 0.0
2014-Oct-26 22:32N 46°12' W 123°48'0 0.0
2014-Oct-26 21:53N 46°12' W 123°48'0 0.0
2014-Oct-26 21:32N 46°12' W 123°48'0 0.0
2014-Oct-26 20:29N 46°12' W 123°48'0 0.0
2014-Oct-26 19:32N 46°12' W 123°48'0 0.0
2014-Oct-26 18:32N 46°12' W 123°48'0 0.0
2014-Oct-26 17:32N 46°12' W 123°48'0 0.0
2014-Oct-26 16:29N 46°12' W 123°48'0 0.0
2014-Oct-26 15:32N 46°12' W 123°48'0 0.0
2014-Oct-26 14:29N 46°12' W 123°48'0 0.0
2014-Oct-26 13:32N 46°12' W 123°48'0 0.0
2014-Oct-26 12:32N 46°12' W 123°48'0 0.0
2014-Oct-26 11:35N 46°12' W 123°48'0 0.0
2014-Oct-26 11:32N 46°12' W 123°48'0 0.0
2014-Oct-26 11:05N 46°12' W 123°48'0 0.0
2014-Oct-26 10:32N 46°12' W 123°48'0 0.0
2014-Oct-26 10:20N 46°12' W 123°48'0 0.0
2014-Oct-26 09:29N 46°12' W 123°48'0 0.0
2014-Oct-26 09:05N 46°12' W 123°48'0 0.0
2014-Oct-26 08:32N 46°12' W 123°48'0 0.0
2014-Oct-26 07:32N 46°12' W 123°48'0 0.0
2014-Oct-26 06:59N 46°12' W 123°48'0 0.0
2014-Oct-26 06:32N 46°12' W 123°48'0 0.0
2014-Oct-26 05:44N 46°12' W 123°48'0 0.0
2014-Oct-26 05:32N 46°12' W 123°48'0 0.0
2014-Oct-26 04:32N 46°12' W 123°48'0 0.0
2014-Oct-26 03:29N 46°12' W 123°48'0 0.0
2014-Oct-26 02:32N 46°12' W 123°48'0 0.0
2014-Oct-26 02:23N 46°12' W 123°48'0 0.0
2014-Oct-26 01:32N 46°12' W 123°48'0 0.0
2014-Oct-26 00:41N 46°12' W 123°48'0 0.0
2014-Oct-26 00:32N 46°12' W 123°48'0 0.0
2014-Oct-25 23:32N 46°12' W 123°48'0 0.0
2014-Oct-25 22:32N 46°12' W 123°48'0 0.0
2014-Oct-25 21:44N 46°12' W 123°48'0 0.0
2014-Oct-25 21:32N 46°12' W 123°48'0 0.0
2014-Oct-25 21:14N 46°12' W 123°48'0 0.0
2014-Oct-25 20:32N 46°12' W 123°48'0 0.0
2014-Oct-25 19:53N 46°12' W 123°48'0 0.0
2014-Oct-25 19:32N 46°12' W 123°48'0 0.0
2014-Oct-25 17:53N 46°12' W 123°48'0 0.0
2014-Oct-25 11:17N 46°12' W 123°48'0 0.0
2014-Oct-25 08:26N 46°12' W 123°48'0 0.0
2014-Oct-25 08:17N 46°12' W 123°48'0 0.0
2014-Oct-25 07:32N 46°12' W 123°48'0 0.0
2014-Oct-25 05:47N 46°12' W 123°48'0 0.0
2014-Oct-25 04:32N 46°12' W 123°48'0 0.0
2014-Oct-25 03:17N 46°12' W 123°48'0 0.0
2014-Oct-25 02:17N 46°12' W 123°48'0 0.0
2014-Oct-25 00:47N 46°12' W 123°48'0 0.0
2014-Oct-25 00:17N 46°12' W 123°48'0 0.0
2014-Oct-24 23:26N 46°12' W 123°48'0 0.0
2014-Oct-24 23:11N 46°12' W 123°48'0 0.0
2014-Oct-24 22:14N 46°12' W 123°48'0 0.0
2014-Oct-24 21:26N 46°12' W 123°48'0 0.0
2014-Oct-24 21:23N 46°12' W 123°48'0 0.0
2014-Oct-24 20:26N 46°12' W 123°48'0 0.0
2014-Oct-24 19:11N 46°12' W 123°48'0 0.0
2014-Oct-24 18:23N 46°12' W 123°48'0 0.0
2014-Oct-24 17:08N 46°12' W 123°48'0 0.0
2014-Oct-24 16:38N 46°12' W 123°48'0 0.0
2014-Oct-24 09:05N 46°12' W 123°48'0 0.0
2014-Oct-24 06:17N 46°12' W 123°48'0 0.0
2014-Oct-24 06:02N 46°12' W 123°48'0 0.0
2014-Oct-24 04:02N 46°12' W 123°48'0 0.0
2014-Oct-24 03:32N 46°12' W 123°48'0 0.0
2014-Oct-24 02:26N 46°12' W 123°48'0 0.0
2014-Oct-24 01:26N 46°12' W 123°48'0 0.0
2014-Oct-23 22:26N 46°12' W 123°48'0 0.0
2014-Oct-22 20:28N 46°12' W 123°48'0 0.0
2014-Oct-22 17:16N 46°12' W 123°48'0 0.0
2014-Oct-22 12:16N 46°12' W 123°48'0 0.0
2014-Oct-22 03:31N 46°12' W 123°48'0 0.0
2014-Oct-22 02:31N 46°12' W 123°48'0 0.0
2014-Oct-22 01:31N 46°12' W 123°48'0 0.0
2014-Oct-22 00:31N 46°12' W 123°48'0 0.0
2014-Oct-21 23:31N 46°12' W 123°48'0 0.0
2014-Oct-21 22:31N 46°12' W 123°48'0 0.0
2014-Oct-21 21:31N 46°12' W 123°48'0 0.0
2014-Oct-21 21:16N 46°12' W 123°48'0 0.0
2014-Oct-21 20:31N 46°12' W 123°48'0 0.0
2014-Oct-21 18:25N 46°12' W 123°48'0 0.0
2014-Oct-21 13:31N 46°12' W 123°48'0 0.0
2014-Oct-21 12:32N 46°12' W 123°48'0 0.0
2014-Oct-21 11:31N 46°12' W 123°48'0 0.0
2014-Oct-21 10:32N 46°12' W 123°48'0 0.0
2014-Oct-21 10:19N 46°12' W 123°48'0 0.0
2014-Oct-21 09:32N 46°12' W 123°48'0 0.0
2014-Oct-21 08:32N 46°12' W 123°48'0 0.0
2014-Oct-21 07:50N 46°12' W 123°48'0 0.0
2014-Oct-21 07:32N 46°12' W 123°48'0 0.0
2014-Oct-21 06:32N 46°12' W 123°48'0 0.0
2014-Oct-21 05:32N 46°12' W 123°48'0 0.0
2014-Oct-21 04:32N 46°12' W 123°48'0 0.0
2014-Oct-21 03:32N 46°12' W 123°48'0 0.0
2014-Oct-21 02:29N 46°12' W 123°48'0 0.0
2014-Oct-21 01:32N 46°12' W 123°48'0 0.0
2014-Oct-21 00:29N 46°12' W 123°48'0 0.0
2014-Oct-20 23:32N 46°12' W 123°48'0 0.0
2014-Oct-20 22:32N 46°12' W 123°48'0 0.0
2014-Oct-20 21:32N 46°12' W 123°48'0 0.0
2014-Oct-20 20:23N 46°12' W 123°48'0 0.0
2014-Oct-20 18:16N 46°12' W 123°48'0 0.0
2014-Oct-20 17:31N 46°12' W 123°48'0 0.0
2014-Oct-20 16:28N 46°12' W 123°48'  
Track history (hours):
 
Tides and Currents Weather Stations Pressure Air Temp Water Temp Dewpoint Dewpoint Depression Visibility Wind Speed Wind Dir Waves Ship Positions

Ocean Beaut

Owner: John Moreland Fishing Inc., Astoria, OR. More information available from US FCC via Universal Licensing System.

Last reported at 2014-Oct-30 15:33 UTC. Time now 2014-Oct-30 16:03 UTC.
Position N 46°35' W 124°26'.

Length 20 m.

Type: Fishing. MMSI: 367187080.

Date/timePositionNaut miles runAvg speedWind from/ knotsBaromVisibWave heightAir tempDewpointWater temp
2014-Oct-30 15:33N 46°35' W 124°26'1 1.1
2014-Oct-30 14:32N 46°34' W 124°25'3 2.8
2014-Oct-30 13:33N 46°37' W 124°27'0 0.3
2014-Oct-30 12:33N 46°36' W 124°27'2 1.6
2014-Oct-30 11:32N 46°35' W 124°26'2 1.7
2014-Oct-30 10:33N 46°33' W 124°26'2 2.0
2014-Oct-30 09:33N 46°35' W 124°27'3 2.6
2014-Oct-30 08:33N 46°37' W 124°29'1 1.3
2014-Oct-30 07:33N 46°36' W 124°28'1 1.3
2014-Oct-30 06:33N 46°35' W 124°27'1 1.1
2014-Oct-30 05:33N 46°34' W 124°26'1 1.1
2014-Oct-30 04:33N 46°33' W 124°26'1 1.0
2014-Oct-30 03:33N 46°32' W 124°26'2 1.6
2014-Oct-30 02:15N 46°34' W 124°26'0 0.5
2014-Oct-30 01:33N 46°34' W 124°26'3 2.8
2014-Oct-30 00:33N 46°37' W 124°26'4 4.1
2014-Oct-29 23:33N 46°33' W 124°25'8 7.9
2014-Oct-29 22:33N 46°26' W 124°19'9 8.8
2014-Oct-29 21:33N 46°18' W 124°13'6 6.2
2014-Oct-29 20:33N 46°15' W 124°05'8 8.0
2014-Oct-29 19:33N 46°12' W 123°55'5 4.5
2014-Oct-29 18:33N 46°12' W 123°48'0 0.0
2014-Oct-29 17:33N 46°12' W 123°48'0 0.0
2014-Oct-29 16:30N 46°12' W 123°48'0 0.0
2014-Oct-29 15:33N 46°12' W 123°48'0 0.0
2014-Oct-29 14:33N 46°12' W 123°48'0 0.0
2014-Oct-29 13:33N 46°12' W 123°48'0 0.0
2014-Oct-29 12:33N 46°12' W 123°48'0 0.0
2014-Oct-29 11:33N 46°12' W 123°48'0 0.0
2014-Oct-29 10:33N 46°12' W 123°48'0 0.0
2014-Oct-29 09:24N 46°12' W 123°48'0 0.0
2014-Oct-29 08:33N 46°12' W 123°48'0 0.0
2014-Oct-29 07:30N 46°12' W 123°48'0 0.0
2014-Oct-29 06:33N 46°12' W 123°48'0 0.0
2014-Oct-29 05:33N 46°12' W 123°48'0 0.0
2014-Oct-29 04:33N 46°12' W 123°48'0 0.0
2014-Oct-29 03:33N 46°12' W 123°48'0 0.0
2014-Oct-29 02:33N 46°12' W 123°48'0 0.0
2014-Oct-29 01:30N 46°12' W 123°48'0 0.0
2014-Oct-29 00:30N 46°12' W 123°48'0 0.0
2014-Oct-28 23:33N 46°12' W 123°48'0 0.0
2014-Oct-28 22:33N 46°12' W 123°48'0 0.0
2014-Oct-28 21:33N 46°12' W 123°48'0 0.0
2014-Oct-28 20:33N 46°12' W 123°48'0 0.0
2014-Oct-28 19:30N 46°12' W 123°48'0 0.2
2014-Oct-28 18:33N 46°12' W 123°48'3 2.6
2014-Oct-28 17:33N 46°11' W 123°51'0 0.2
2014-Oct-28 16:33N 46°11' W 123°52'2 2.3
2014-Oct-28 15:28N 46°12' W 123°48'0 0.0
2014-Oct-28 14:28N 46°12' W 123°48'0 0.0
2014-Oct-28 13:28N 46°12' W 123°48'0 0.0
2014-Oct-28 12:31N 46°12' W 123°48'0 0.0
2014-Oct-28 11:31N 46°12' W 123°48'0 0.0
2014-Oct-28 10:31N 46°12' W 123°48'0 0.0
2014-Oct-28 09:31N 46°12' W 123°48'0 0.0
2014-Oct-28 08:31N 46°12' W 123°48'0 0.0
2014-Oct-28 07:31N 46°12' W 123°48'0 0.0
2014-Oct-28 06:31N 46°12' W 123°48'0 0.0
2014-Oct-28 05:31N 46°12' W 123°48'0 0.0
2014-Oct-28 04:31N 46°12' W 123°48'0 0.0
2014-Oct-28 03:31N 46°12' W 123°48'0 0.0
2014-Oct-28 02:31N 46°12' W 123°48'0 0.0
2014-Oct-28 01:31N 46°12' W 123°48'0 0.0
2014-Oct-28 00:31N 46°12' W 123°48'0 0.0
2014-Oct-27 23:31N 46°12' W 123°48'0 0.0
2014-Oct-27 22:31N 46°12' W 123°48'0 0.0
2014-Oct-27 21:40N 46°12' W 123°48'0 0.0
2014-Oct-27 21:31N 46°12' W 123°48'0 0.0
2014-Oct-27 20:19N 46°12' W 123°48'0 0.0
2014-Oct-27 19:28N 46°12' W 123°48'0 0.0
2014-Oct-27 18:40N 46°12' W 123°48'0 0.0
2014-Oct-27 18:31N 46°12' W 123°48'0 0.0
2014-Oct-27 17:16N 46°12' W 123°48'0 0.0
2014-Oct-27 16:31N 46°12' W 123°48'0 0.0
2014-Oct-27 15:31N 46°12' W 123°48'0 0.0
2014-Oct-27 14:28N 46°12' W 123°48'0 0.0
2014-Oct-27 13:35N 46°12' W 123°48'0 0.0
2014-Oct-27 13:31N 46°12' W 123°48'0 0.0
2014-Oct-27 13:05N 46°12' W 123°48'0 0.0
2014-Oct-27 12:31N 46°12' W 123°48'0 0.0
2014-Oct-27 11:28N 46°12' W 123°48'0 0.0
2014-Oct-27 10:31N 46°12' W 123°48'0 0.0
2014-Oct-27 09:31N 46°12' W 123°48'0 0.0
2014-Oct-27 08:31N 46°12' W 123°48'0 0.0
2014-Oct-27 07:28N 46°12' W 123°48'0 0.0
2014-Oct-27 06:59N 46°12' W 123°48'0 0.0
2014-Oct-27 06:32N 46°12' W 123°48'0 0.0
2014-Oct-27 06:29N 46°12' W 123°48'0 0.0
2014-Oct-27 06:14N 46°12' W 123°48'0 0.0
2014-Oct-27 05:32N 46°12' W 123°48'0 0.0
2014-Oct-27 04:32N 46°12' W 123°48'0 0.0
2014-Oct-27 03:32N 46°12' W 123°48'0 0.0
2014-Oct-27 02:32N 46°12' W 123°48'0 0.0
2014-Oct-27 01:53N 46°12' W 123°48'0 0.0
2014-Oct-27 01:32N 46°12' W 123°48'0 0.0
2014-Oct-27 00:32N 46°12' W 123°48'0 0.0
2014-Oct-26 23:32N 46°12' W 123°48'0 0.0
2014-Oct-26 22:38N 46°12' W 123°48'0 0.0
2014-Oct-26 22:32N 46°12' W 123°48'0 0.0
2014-Oct-26 21:53N 46°12' W 123°48'0 0.0
2014-Oct-26 21:32N 46°12' W 123°48'0 0.0
2014-Oct-26 20:29N 46°12' W 123°48'0 0.0
2014-Oct-26 19:32N 46°12' W 123°48'0 0.0
2014-Oct-26 18:32N 46°12' W 123°48'0 0.0
2014-Oct-26 17:32N 46°12' W 123°48'0 0.0
2014-Oct-26 16:29N 46°12' W 123°48'0 0.0
2014-Oct-26 15:32N 46°12' W 123°48'0 0.0
2014-Oct-26 14:29N 46°12' W 123°48'0 0.0
2014-Oct-26 13:32N 46°12' W 123°48'0 0.0
2014-Oct-26 12:32N 46°12' W 123°48'0 0.0
2014-Oct-26 11:35N 46°12' W 123°48'0 0.0
2014-Oct-26 11:32N 46°12' W 123°48'0 0.0
2014-Oct-26 11:05N 46°12' W 123°48'0 0.0
2014-Oct-26 10:32N 46°12' W 123°48'0 0.0
2014-Oct-26 10:20N 46°12' W 123°48'0 0.0
2014-Oct-26 09:29N 46°12' W 123°48'0 0.0
2014-Oct-26 09:05N 46°12' W 123°48'0 0.0
2014-Oct-26 08:32N 46°12' W 123°48'0 0.0
2014-Oct-26 07:32N 46°12' W 123°48'0 0.0
2014-Oct-26 06:59N 46°12' W 123°48'0 0.0
2014-Oct-26 06:32N 46°12' W 123°48'0 0.0
2014-Oct-26 05:44N 46°12' W 123°48'0 0.0
2014-Oct-26 05:32N 46°12' W 123°48'0 0.0
2014-Oct-26 04:32N 46°12' W 123°48'0 0.0
2014-Oct-26 03:29N 46°12' W 123°48'0 0.0
2014-Oct-26 02:32N 46°12' W 123°48'0 0.0
2014-Oct-26 02:23N 46°12' W 123°48'0 0.0
2014-Oct-26 01:32N 46°12' W 123°48'0 0.0
2014-Oct-26 00:41N 46°12' W 123°48'0 0.0
2014-Oct-26 00:32N 46°12' W 123°48'0 0.0
2014-Oct-25 23:32N 46°12' W 123°48'0 0.0
2014-Oct-25 22:32N 46°12' W 123°48'0 0.0
2014-Oct-25 21:44N 46°12' W 123°48'0 0.0
2014-Oct-25 21:32N 46°12' W 123°48'0 0.0
2014-Oct-25 21:14N 46°12' W 123°48'0 0.0
2014-Oct-25 20:32N 46°12' W 123°48'0 0.0
2014-Oct-25 19:53N 46°12' W 123°48'0 0.0
2014-Oct-25 19:32N 46°12' W 123°48'0 0.0
2014-Oct-25 17:53N 46°12' W 123°48'0 0.0
2014-Oct-25 11:17N 46°12' W 123°48'0 0.0
2014-Oct-25 08:26N 46°12' W 123°48'0 0.0
2014-Oct-25 08:17N 46°12' W 123°48'0 0.0
2014-Oct-25 07:32N 46°12' W 123°48'0 0.0
2014-Oct-25 05:47N 46°12' W 123°48'0 0.0
2014-Oct-25 04:32N 46°12' W 123°48'0 0.0
2014-Oct-25 03:17N 46°12' W 123°48'0 0.0
2014-Oct-25 02:17N 46°12' W 123°48'0 0.0
2014-Oct-25 00:47N 46°12' W 123°48'0 0.0
2014-Oct-25 00:17N 46°12' W 123°48'0 0.0
2014-Oct-24 23:26N 46°12' W 123°48'0 0.0
2014-Oct-24 23:11N 46°12' W 123°48'0 0.0
2014-Oct-24 22:14N 46°12' W 123°48'0 0.0
2014-Oct-24 21:26N 46°12' W 123°48'0 0.0
2014-Oct-24 21:23N 46°12' W 123°48'0 0.0
2014-Oct-24 20:26N 46°12' W 123°48'0 0.0
2014-Oct-24 19:11N 46°12' W 123°48'0 0.0
2014-Oct-24 18:23N 46°12' W 123°48'0 0.0
2014-Oct-24 17:08N 46°12' W 123°48'0 0.0
2014-Oct-24 16:38N 46°12' W 123°48'0 0.0
2014-Oct-24 09:05N 46°12' W 123°48'0 0.0
2014-Oct-24 06:17N 46°12' W 123°48'0 0.0
2014-Oct-24 06:02N 46°12' W 123°48'0 0.0
2014-Oct-24 04:02N 46°12' W 123°48'0 0.0
2014-Oct-24 03:32N 46°12' W 123°48'0 0.0
2014-Oct-24 02:26N 46°12' W 123°48'0 0.0
2014-Oct-24 01:26N 46°12' W 123°48'0 0.0
2014-Oct-23 22:26N 46°12' W 123°48'0 0.0
2014-Oct-22 20:28N 46°12' W 123°48'0 0.0
2014-Oct-22 17:16N 46°12' W 123°48'0 0.0
2014-Oct-22 12:16N 46°12' W 123°48'0 0.0
2014-Oct-22 03:31N 46°12' W 123°48'0 0.0
2014-Oct-22 02:31N 46°12' W 123°48'0 0.0
2014-Oct-22 01:31N 46°12' W 123°48'0 0.0
2014-Oct-22 00:31N 46°12' W 123°48'0 0.0
2014-Oct-21 23:31N 46°12' W 123°48'0 0.0
2014-Oct-21 22:31N 46°12' W 123°48'0 0.0
2014-Oct-21 21:31N 46°12' W 123°48'0 0.0
2014-Oct-21 21:16N 46°12' W 123°48'0 0.0
2014-Oct-21 20:31N 46°12' W 123°48'0 0.0
2014-Oct-21 18:25N 46°12' W 123°48'0 0.0
2014-Oct-21 13:31N 46°12' W 123°48'0 0.0
2014-Oct-21 12:32N 46°12' W 123°48'0 0.0
2014-Oct-21 11:31N 46°12' W 123°48'0 0.0
2014-Oct-21 10:32N 46°12' W 123°48'0 0.0
2014-Oct-21 10:19N 46°12' W 123°48'0 0.0
2014-Oct-21 09:32N 46°12' W 123°48'0 0.0
2014-Oct-21 08:32N 46°12' W 123°48'0 0.0
2014-Oct-21 07:50N 46°12' W 123°48'0 0.0
2014-Oct-21 07:32N 46°12' W 123°48'0 0.0
2014-Oct-21 06:32N 46°12' W 123°48'0 0.0
2014-Oct-21 05:32N 46°12' W 123°48'0 0.0
2014-Oct-21 04:32N 46°12' W 123°48'0 0.0
2014-Oct-21 03:32N 46°12' W 123°48'0 0.0
2014-Oct-21 02:29N 46°12' W 123°48'0 0.0
2014-Oct-21 01:32N 46°12' W 123°48'0 0.0
2014-Oct-21 00:29N 46°12' W 123°48'0 0.0
2014-Oct-20 23:32N 46°12' W 123°48'0 0.0
2014-Oct-20 22:32N 46°12' W 123°48'0 0.0
2014-Oct-20 21:32N 46°12' W 123°48'0 0.0
2014-Oct-20 20:23N 46°12' W 123°48'0 0.0
2014-Oct-20 18:16N 46°12' W 123°48'0 0.0
2014-Oct-20 17:31N 46°12' W 123°48'0 0.0
2014-Oct-20 16:28N 46°12' W 123°48'  

Dump ship's entire track history